Portada
METAR-TAF:

METAR-TAF

Aeroports :

Timimoun, Algèria

latitud: 29-15N, longitud: 000-17E, altitud: 312 m

METAR: manca

Hora: 09:48 (08:48 UTC)

Pronòstic

L'informe es va fer fa 3 hores i 48 minuts, a les 05:00 UTC
Pronòstic vàlid del 25 a les 06 UTC al 25 a les 15 UTC
Vent 12 kt del Nord/Nord-Est
Visibilitat 10 km o més
Escasses núvols a una alçada de 4000 ft
Núvols disperses a una alçada de 10000 ft
Probabilitat 40% :
Temporalment
l' 25 a les 06 UTC al 25 a les 09 UTC
Visibilitat: 5000 m
Escasses núvols a una alçada de 4000 ft, Cumulonimbus.
tempesta, pluja
Probabilitat 30% :
Temporalment
l' 25 a les 06 UTC al 25 a les 09 UTC
Vent 22 kt del Nord/Nord-Est
Visibilitat: 3000 m
Escasses núvols a una alçada de 4000 ft, Cumulonimbus.
torb baixa de sorra

TAF: DAUT 250500Z 2506/2515 02012KT 9999 FEW040 SCT100 PROB40 TEMPO 2506/2509 5000 -TSRA FEW040CB PROB30 TEMPO 2506/2509 02022KT 3000 DRSA FEW040CB

Observacions i pronòstics meteorològics de més de 4000 aeroports (METAR i TAF).

Les estacions disponibles són els punts grocs i vermells al mapa.

Posi el ratolí al punt desitjat per veure el nom de l'estació.

Feu clic per veure les observacions i els pronòstics meteorològics.

Per canviar el mapa: feu clic els botons verds amb una creu de color negre per apropar; al botó verd amb un guió per allunyar la imatge; o en les fletxes verdes per a mapes adjacents.


METAR-TAF: